createdAt,value
2017-10-16T00:01:46.116Z,9.43
2017-10-16T00:04:15.949Z,10.93
2017-10-16T00:06:45.829Z,10.90
2017-10-16T00:09:15.416Z,10.80
2017-10-16T00:11:45.281Z,10.35
2017-10-16T00:14:15.174Z,11.12
2017-10-16T00:16:45.070Z,9.95
2017-10-16T00:19:14.927Z,10.15
2017-10-16T00:21:44.951Z,9.90
2017-10-16T00:24:14.583Z,9.10
2017-10-16T00:26:44.253Z,9.43
2017-10-16T00:29:13.954Z,9.70
2017-10-16T00:31:43.727Z,10.10
2017-10-16T00:34:13.919Z,9.02
2017-10-16T00:36:43.975Z,11.30
2017-10-16T00:39:13.877Z,10.73
2017-10-16T00:41:43.731Z,10.50
2017-10-16T00:44:13.660Z,11.40
2017-10-16T00:46:43.664Z,11.82
2017-10-16T00:49:13.536Z,10.55
2017-10-16T00:51:43.119Z,9.77
2017-10-16T00:54:13.127Z,10.18
2017-10-16T00:56:43.215Z,10.10
2017-10-16T00:59:12.370Z,10.05
2017-10-16T01:01:42.358Z,9.00
2017-10-16T01:04:12.237Z,10.00
2017-10-16T01:06:41.919Z,9.40
2017-10-16T01:09:12.329Z,10.40
2017-10-16T01:11:42.215Z,10.88
2017-10-16T01:14:12.089Z,9.90
2017-10-16T01:16:42.298Z,9.50
2017-10-16T01:19:12.150Z,9.57
2017-10-16T01:21:41.647Z,9.43
2017-10-16T01:24:10.951Z,10.00
2017-10-16T01:26:40.363Z,9.00
2017-10-16T01:29:10.408Z,9.07
2017-10-16T01:31:39.947Z,9.32
2017-10-16T01:34:09.416Z,9.00
2017-10-16T01:36:39.172Z,9.23
2017-10-16T01:39:08.657Z,9.82
2017-10-16T01:41:38.523Z,10.40
2017-10-16T01:44:08.459Z,10.48
2017-10-16T01:46:37.914Z,10.40
2017-10-16T01:49:07.330Z,9.02
2017-10-16T01:51:37.135Z,9.98
2017-10-16T01:54:06.609Z,10.15
2017-10-16T01:56:36.811Z,10.82
2017-10-16T01:59:06.548Z,9.90
2017-10-16T02:01:36.435Z,10.40
2017-10-16T02:04:06.461Z,10.50
2017-10-16T02:06:36.304Z,9.88
2017-10-16T02:09:06.947Z,11.38
2017-10-16T02:11:36.945Z,10.90
2017-10-16T02:14:06.771Z,10.85
2017-10-16T02:16:36.566Z,9.50
2017-10-16T02:19:06.656Z,9.50
2017-10-16T02:21:36.497Z,9.63
2017-10-16T02:24:06.363Z,9.95
2017-10-16T02:26:36.242Z,10.52
2017-10-16T02:29:05.758Z,10.27
2017-10-16T02:31:35.637Z,10.48
2017-10-16T02:34:05.485Z,9.57
2017-10-16T02:36:35.311Z,10.45
2017-10-16T02:39:04.352Z,11.75
2017-10-16T02:41:34.157Z,12.65
2017-10-16T02:44:04.270Z,12.50
2017-10-16T02:46:34.395Z,12.15
2017-10-16T02:49:04.011Z,12.40
2017-10-16T02:51:33.889Z,12.80
2017-10-16T02:54:03.779Z,13.10
2017-10-16T02:56:33.741Z,11.90
2017-10-16T02:59:03.609Z,14.10
2017-10-16T03:01:33.264Z,13.98
2017-10-16T03:04:03.102Z,14.15
2017-10-16T03:06:32.938Z,12.85
2017-10-16T03:09:02.634Z,13.75
2017-10-16T03:11:32.109Z,14.52
2017-10-16T03:14:01.745Z,13.70
2017-10-16T03:16:31.452Z,14.40
2017-10-16T03:19:01.312Z,15.57
2017-10-16T03:21:31.208Z,14.90
2017-10-16T03:24:01.124Z,15.05
2017-10-16T03:26:31.002Z,14.98
2017-10-16T03:29:00.942Z,14.10
2017-10-16T03:31:30.887Z,13.10
2017-10-16T03:34:00.832Z,12.50
2017-10-16T03:36:30.706Z,12.90
2017-10-16T03:39:00.422Z,12.85
2017-10-16T03:41:30.302Z,13.10
2017-10-16T03:44:00.269Z,13.55
2017-10-16T03:46:30.569Z,14.50
2017-10-16T03:49:00.241Z,16.15
2017-10-16T03:51:30.184Z,16.10
2017-10-16T03:54:00.120Z,17.35
2017-10-16T03:56:29.981Z,19.30
2017-10-16T03:58:59.616Z,20.62
2017-10-16T04:01:29.494Z,27.55
2017-10-16T04:03:59.525Z,27.35
2017-10-16T04:06:29.594Z,17.65
2017-10-16T04:08:59.803Z,18.98
2017-10-16T04:11:30.940Z,17.02
2017-10-16T04:14:00.818Z,18.77
2017-10-16T04:16:30.732Z,16.98
2017-10-16T04:19:00.644Z,17.50
2017-10-16T04:21:30.579Z,15.52
2017-10-16T04:24:00.521Z,17.27
2017-10-16T04:26:30.381Z,20.95
2017-10-16T04:29:00.301Z,20.62
2017-10-16T04:31:30.195Z,25.15
2017-10-16T04:34:00.099Z,22.73
2017-10-16T04:36:30.560Z,22.45
2017-10-16T04:39:00.715Z,19.75
2017-10-16T04:41:30.668Z,23.00
2017-10-16T04:44:00.713Z,25.58
2017-10-16T04:46:30.423Z,22.23
2017-10-16T04:49:00.308Z,21.87
2017-10-16T04:51:30.176Z,21.85
2017-10-16T04:54:00.321Z,22.17
2017-10-16T04:56:30.219Z,20.08
2017-10-16T04:59:00.546Z,22.45
2017-10-16T05:01:30.534Z,21.15
2017-10-16T05:04:00.322Z,20.15
2017-10-16T05:06:29.912Z,21.37
2017-10-16T05:08:59.489Z,19.65
2017-10-16T05:11:29.274Z,20.05
2017-10-16T05:13:59.041Z,18.70
2017-10-16T05:16:32.519Z,19.80
2017-10-16T05:19:02.310Z,19.92
2017-10-16T05:21:36.043Z,17.20
2017-10-16T05:24:05.846Z,17.33
2017-10-16T05:26:35.613Z,16.87
2017-10-16T05:29:05.410Z,18.65
2017-10-16T05:31:35.254Z,17.12
2017-10-16T05:34:05.089Z,16.80
2017-10-16T05:36:34.868Z,16.58
2017-10-16T05:39:03.925Z,16.08
2017-10-16T05:41:34.123Z,17.87
2017-10-16T05:44:03.407Z,20.02
2017-10-16T05:46:33.007Z,22.23
2017-10-16T05:49:02.601Z,20.30
2017-10-16T05:51:32.375Z,19.85
2017-10-16T05:54:02.144Z,19.58
2017-10-16T05:56:31.965Z,24.10
2017-10-16T05:59:01.721Z,25.27
2017-10-16T06:01:31.515Z,25.70
2017-10-16T06:04:01.278Z,25.33
2017-10-16T06:06:30.690Z,22.73
2017-10-16T06:09:00.196Z,23.90
2017-10-16T06:11:29.603Z,20.65
2017-10-16T06:13:59.383Z,20.85
2017-10-16T06:16:29.810Z,20.75
2017-10-16T06:18:59.657Z,20.17
2017-10-16T06:21:29.451Z,20.50
2017-10-16T06:23:59.218Z,19.40
2017-10-16T06:26:29.035Z,20.92
2017-10-16T06:28:58.686Z,21.05
2017-10-16T06:31:28.531Z,20.92
2017-10-16T06:33:58.314Z,21.05
2017-10-16T06:36:28.067Z,20.58
2017-10-16T06:38:57.877Z,22.98
2017-10-16T06:41:27.679Z,25.20
2017-10-16T06:43:57.557Z,25.95
2017-10-16T06:46:26.986Z,23.83
2017-10-16T06:48:56.558Z,25.73
2017-10-16T06:51:26.130Z,30.83
2017-10-16T06:53:55.890Z,30.33
2017-10-16T06:56:25.669Z,30.17
2017-10-16T06:58:55.456Z,31.98
2017-10-16T07:01:25.215Z,34.88
2017-10-16T07:03:54.714Z,31.73
2017-10-16T07:06:24.471Z,31.90
2017-10-16T07:08:54.216Z,32.20
2017-10-16T07:11:24.021Z,34.55
2017-10-16T07:13:53.598Z,32.75
2017-10-16T07:16:23.395Z,34.45
2017-10-16T07:18:52.977Z,34.13
2017-10-16T07:21:22.430Z,33.87
2017-10-16T07:23:52.200Z,34.55
2017-10-16T07:26:21.995Z,36.45
2017-10-16T07:28:51.707Z,36.28
2017-10-16T07:31:21.515Z,38.70
2017-10-16T07:33:51.294Z,39.80
2017-10-16T07:36:21.057Z,44.83
2017-10-16T07:38:50.821Z,40.00
2017-10-16T07:41:20.654Z,42.83
2017-10-16T07:43:50.289Z,46.08
2017-10-16T07:46:20.126Z,48.17
2017-10-16T07:48:49.886Z,47.30
2017-10-16T07:51:19.961Z,49.85
2017-10-16T07:53:49.763Z,48.80
2017-10-16T07:56:19.599Z,46.25
2017-10-16T07:58:49.386Z,47.72
2017-10-16T08:01:18.880Z,49.13
2017-10-16T08:03:48.342Z,47.37
2017-10-16T08:06:17.905Z,46.60
2017-10-16T08:08:47.696Z,44.57
2017-10-16T08:11:17.176Z,47.00
2017-10-16T08:13:46.640Z,44.67
2017-10-16T08:16:16.120Z,40.87
2017-10-16T08:18:45.614Z,42.37
2017-10-16T08:21:15.266Z,42.40
2017-10-16T08:23:44.727Z,38.10
2017-10-16T08:26:13.858Z,39.70
2017-10-16T08:28:43.376Z,37.00
2017-10-16T08:31:12.494Z,36.67
2017-10-16T08:33:41.613Z,32.43
2017-10-16T08:36:11.236Z,32.93
2017-10-16T08:38:40.364Z,31.63
2017-10-16T08:41:09.322Z,33.57
2017-10-16T08:43:38.468Z,32.47
2017-10-16T08:46:07.963Z,32.30
2017-10-16T08:48:37.093Z,32.70
2017-10-16T08:51:06.249Z,32.07
2017-10-16T08:53:35.369Z,27.27
2017-10-16T08:56:04.511Z,29.17
2017-10-16T08:58:33.465Z,27.60
2017-10-16T09:01:02.732Z,25.40
2017-10-16T09:03:32.124Z,30.30
2017-10-16T09:06:01.078Z,31.07
2017-10-16T09:08:30.236Z,32.33
2017-10-16T09:11:00.032Z,31.43
2017-10-16T09:13:29.195Z,30.93
2017-10-16T09:15:58.700Z,33.30
2017-10-16T09:18:28.197Z,32.57
2017-10-16T09:20:57.199Z,34.80
2017-10-16T09:23:26.866Z,37.70
2017-10-16T09:25:56.014Z,38.80
2017-10-16T09:28:25.458Z,41.10
2017-10-16T09:30:54.948Z,42.87
2017-10-16T09:33:24.146Z,40.13
2017-10-16T09:35:53.343Z,39.07
2017-10-16T09:38:22.516Z,42.10
2017-10-16T09:40:51.657Z,42.00
2017-10-16T09:43:20.960Z,40.70
2017-10-16T09:45:50.173Z,38.50
2017-10-16T09:48:19.649Z,38.70
2017-10-16T09:50:49.173Z,36.43
2017-10-16T09:53:18.637Z,35.40
2017-10-16T09:55:47.618Z,34.77
2017-10-16T09:58:18.620Z,33.10
2017-10-16T10:00:48.698Z,33.27
2017-10-16T10:03:17.951Z,33.37
2017-10-16T10:05:47.470Z,31.47
2017-10-16T10:08:16.959Z,31.90
2017-10-16T10:10:46.126Z,30.97
2017-10-16T10:13:15.106Z,31.00
2017-10-16T10:15:44.068Z,30.63
2017-10-16T10:18:13.526Z,30.60
2017-10-16T10:20:43.012Z,29.70
2017-10-16T10:23:13.014Z,29.13
2017-10-16T10:25:42.470Z,30.33
2017-10-16T10:28:11.939Z,27.40
2017-10-16T10:30:41.401Z,24.57
2017-10-16T10:33:10.900Z,21.37
2017-10-16T10:35:40.431Z,19.93
2017-10-16T10:38:09.918Z,26.23
2017-10-16T10:40:39.386Z,25.93
2017-10-16T10:43:08.910Z,26.60
2017-10-16T10:45:38.438Z,26.20
2017-10-16T10:48:07.974Z,24.90
2017-10-16T10:50:37.434Z,24.63
2017-10-16T10:53:06.994Z,29.30
2017-10-16T10:55:36.462Z,23.07
2017-10-16T10:58:05.958Z,21.53
2017-10-16T11:00:35.084Z,18.77
2017-10-16T11:03:04.538Z,17.93
2017-10-16T11:05:33.698Z,16.20
2017-10-16T11:08:03.203Z,17.30
2017-10-16T11:10:32.659Z,15.27
2017-10-16T11:13:01.793Z,15.17
2017-10-16T11:15:31.301Z,13.17
2017-10-16T11:18:00.777Z,17.73
2017-10-16T11:20:29.762Z,19.90
2017-10-16T11:23:00.060Z,14.10
2017-10-16T11:25:29.452Z,18.23
2017-10-16T11:27:58.566Z,13.80
2017-10-16T11:30:27.761Z,17.83
2017-10-16T11:32:57.003Z,15.70
2017-10-16T11:35:26.145Z,12.57
2017-10-16T11:37:55.269Z,15.80
2017-10-16T11:40:24.411Z,13.90
2017-10-16T11:42:53.613Z,13.90
2017-10-16T11:45:22.746Z,12.43
2017-10-16T11:47:52.300Z,13.17
2017-10-16T11:50:21.252Z,12.17
2017-10-16T11:52:50.380Z,9.50
2017-10-16T11:55:19.657Z,9.73
2017-10-16T11:57:48.790Z,9.97
2017-10-16T12:00:17.937Z,10.17
2017-10-16T12:02:46.926Z,9.40
2017-10-16T12:05:16.040Z,9.60
2017-10-16T12:07:45.288Z,8.80
2017-10-16T12:10:14.418Z,8.20
2017-10-16T12:12:43.678Z,8.17
2017-10-16T12:15:12.781Z,8.30
2017-10-16T12:17:41.650Z,7.70
2017-10-16T12:20:10.561Z,7.30
2017-10-16T12:22:39.850Z,7.87
2017-10-16T12:25:08.827Z,8.27
2017-10-16T12:27:37.821Z,8.60
2017-10-16T12:30:06.953Z,8.03
2017-10-16T12:32:36.084Z,7.90
2017-10-16T12:35:05.032Z,8.00
2017-10-16T12:37:34.123Z,7.90
2017-10-16T12:40:03.330Z,7.90
2017-10-16T12:42:31.999Z,8.03
2017-10-16T12:45:01.130Z,7.83
2017-10-16T12:47:30.299Z,8.00
2017-10-16T12:49:59.397Z,7.80
2017-10-16T12:52:28.330Z,7.87
2017-10-16T12:54:57.467Z,7.27
2017-10-16T12:57:26.659Z,7.40
2017-10-16T12:59:56.163Z,7.07
2017-10-16T13:02:25.288Z,7.00
2017-10-16T13:04:54.750Z,6.83
2017-10-16T13:07:24.183Z,6.03
2017-10-16T13:09:53.148Z,6.93
2017-10-16T13:12:23.702Z,6.83
2017-10-16T13:14:52.842Z,7.40
2017-10-16T13:17:22.301Z,7.80
2017-10-16T13:19:51.428Z,6.73
2017-10-16T13:22:20.569Z,7.00
2017-10-16T13:24:49.719Z,6.30
2017-10-16T13:27:18.913Z,6.17
2017-10-16T13:29:48.017Z,6.47
2017-10-16T13:32:17.139Z,6.30
2017-10-16T13:34:46.117Z,6.27
2017-10-16T13:37:15.069Z,7.03
2017-10-16T13:39:44.018Z,5.87
2017-10-16T13:42:12.957Z,6.83
2017-10-16T13:44:42.248Z,5.57
2017-10-16T13:47:11.598Z,5.67
2017-10-16T13:49:40.977Z,6.23
2017-10-16T13:52:10.282Z,5.73
2017-10-16T13:54:39.366Z,5.80
2017-10-16T13:57:08.090Z,6.17
2017-10-16T13:59:37.166Z,5.63
2017-10-16T14:02:06.218Z,5.70
2017-10-16T14:04:35.631Z,5.80
2017-10-16T14:07:04.313Z,5.20
2017-10-16T14:09:33.789Z,5.50
2017-10-16T14:12:06.552Z,5.67
2017-10-16T14:14:35.669Z,5.80
2017-10-16T14:17:04.809Z,5.60
2017-10-16T14:19:33.730Z,5.20
2017-10-16T14:22:02.872Z,5.90
2017-10-16T14:24:31.983Z,5.20
2017-10-16T14:27:01.095Z,5.60
2017-10-16T14:29:31.878Z,6.03
2017-10-16T14:32:00.581Z,6.17
2017-10-16T14:34:29.278Z,6.00
2017-10-16T14:36:58.251Z,6.00
2017-10-16T14:39:27.411Z,6.90
2017-10-16T14:41:56.534Z,6.83
2017-10-16T14:44:25.701Z,5.00
2017-10-16T14:46:54.803Z,5.93
2017-10-16T14:49:23.948Z,5.57
2017-10-16T14:51:53.076Z,6.63
2017-10-16T14:54:22.256Z,6.50
2017-10-16T14:56:51.423Z,6.10
2017-10-16T14:59:20.627Z,6.40
2017-10-16T15:01:49.729Z,7.20
2017-10-16T15:04:18.871Z,6.63
2017-10-16T15:06:47.815Z,6.07
2017-10-16T15:09:16.944Z,6.83
2017-10-16T15:11:46.080Z,6.70
2017-10-16T15:14:15.191Z,6.30
2017-10-16T15:16:44.678Z,7.30
2017-10-16T15:19:13.794Z,5.97
2017-10-16T15:21:42.963Z,7.30
2017-10-16T15:24:12.486Z,6.43
2017-10-16T15:26:42.373Z,6.93
2017-10-16T15:29:11.763Z,6.87
2017-10-16T15:31:41.026Z,6.80
2017-10-16T15:34:09.548Z,6.60
2017-10-16T15:36:38.477Z,6.70
2017-10-16T15:39:09.135Z,6.23
2017-10-16T15:41:38.097Z,7.47
2017-10-16T15:44:07.041Z,6.57
2017-10-16T15:46:35.965Z,6.47
2017-10-16T15:49:05.089Z,6.90
2017-10-16T15:51:34.213Z,7.90
2017-10-16T15:54:03.871Z,8.10
2017-10-16T15:56:32.837Z,10.07
2017-10-16T15:59:01.836Z,10.20
2017-10-16T16:01:31.012Z,9.60
2017-10-16T16:04:00.006Z,7.27
2017-10-16T16:06:29.139Z,8.57
2017-10-16T16:08:58.265Z,8.30
2017-10-16T16:11:27.378Z,8.70
2017-10-16T16:13:56.116Z,7.57
2017-10-16T16:16:24.962Z,7.43
2017-10-16T16:18:54.272Z,8.40
2017-10-16T16:21:23.502Z,9.00
2017-10-16T16:23:52.459Z,7.70
2017-10-16T16:26:21.451Z,8.20
2017-10-16T16:28:50.513Z,9.30
2017-10-16T16:31:19.626Z,8.17
2017-10-16T16:33:48.793Z,8.83
2017-10-16T16:36:17.946Z,9.53
2017-10-16T16:38:47.053Z,9.70
2017-10-16T16:41:15.925Z,10.00
2017-10-16T16:43:44.855Z,10.17
2017-10-16T16:46:14.426Z,9.60
2017-10-16T16:48:43.952Z,9.00
2017-10-16T16:51:13.419Z,9.97
2017-10-16T16:53:42.897Z,11.40
2017-10-16T16:56:12.446Z,9.70
2017-10-16T16:58:41.905Z,8.77
2017-10-16T17:01:10.868Z,9.83
2017-10-16T17:03:39.790Z,10.87
2017-10-16T17:06:09.122Z,11.03
2017-10-16T17:08:38.385Z,9.87
2017-10-16T17:11:07.341Z,10.73
2017-10-16T17:13:37.011Z,10.23
2017-10-16T17:16:06.126Z,10.07
2017-10-16T17:18:35.582Z,11.50
2017-10-16T17:21:05.054Z,10.87
2017-10-16T17:23:34.515Z,10.93
2017-10-16T17:26:03.988Z,13.33
2017-10-16T17:28:33.122Z,20.77
2017-10-16T17:31:02.665Z,28.63
2017-10-16T17:33:32.150Z,22.47
2017-10-16T17:36:01.266Z,18.57
2017-10-16T17:38:30.410Z,16.70
2017-10-16T17:40:59.891Z,17.77
2017-10-16T17:43:29.419Z,16.40
2017-10-16T17:45:58.856Z,15.17
2017-10-16T17:48:28.495Z,16.90
2017-10-16T17:50:57.689Z,17.67
2017-10-16T17:53:27.154Z,16.17
2017-10-16T17:55:56.430Z,15.03
2017-10-16T17:58:25.699Z,15.80
2017-10-16T18:00:56.421Z,15.53
2017-10-16T18:03:26.255Z,15.60
2017-10-16T18:05:55.751Z,15.10
2017-10-16T18:08:24.876Z,13.97
2017-10-16T18:10:55.071Z,13.00
2017-10-16T18:13:24.640Z,15.07
2017-10-16T18:15:54.528Z,16.35
2017-10-16T18:18:24.788Z,15.43
2017-10-16T18:20:54.327Z,13.67
2017-10-16T18:23:23.836Z,15.23
2017-10-16T18:25:53.591Z,15.77
2017-10-16T18:28:22.812Z,14.33
2017-10-16T18:30:52.557Z,15.25
2017-10-16T18:33:22.544Z,16.10
2017-10-16T18:35:52.033Z,15.60
2017-10-16T18:38:21.642Z,16.00
2017-10-16T18:40:51.855Z,14.87
2017-10-16T18:43:21.341Z,15.00
2017-10-16T18:45:51.114Z,14.50
2017-10-16T18:48:20.741Z,16.00
2017-10-16T18:50:49.937Z,14.53
2017-10-16T18:53:19.783Z,13.00
2017-10-16T18:55:49.232Z,14.75
2017-10-16T18:58:18.482Z,13.90
2017-10-16T19:00:47.975Z,14.50
2017-10-16T19:03:19.225Z,14.95
2017-10-16T19:05:49.378Z,16.20
2017-10-16T19:08:19.450Z,14.75
2017-10-16T19:10:48.883Z,15.80
2017-10-16T19:13:18.454Z,16.42
2017-10-16T19:15:47.972Z,16.90
2017-10-16T19:18:17.440Z,16.65
2017-10-16T19:20:46.886Z,16.30
2017-10-16T19:23:16.841Z,15.85
2017-10-16T19:25:47.337Z,14.45
2017-10-16T19:28:16.819Z,14.55
2017-10-16T19:30:47.606Z,15.90
2017-10-16T19:33:17.076Z,16.67
2017-10-16T19:35:46.785Z,16.10
2017-10-16T19:38:17.117Z,16.10
2017-10-16T19:40:46.558Z,16.70
2017-10-16T19:43:16.693Z,15.50
2017-10-16T19:45:46.868Z,16.45
2017-10-16T19:48:16.468Z,16.02
2017-10-16T19:50:45.873Z,15.95
2017-10-16T19:53:19.902Z,15.50
2017-10-16T19:55:49.939Z,15.15
2017-10-16T19:58:20.043Z,15.80
2017-10-16T20:00:50.318Z,15.40
2017-10-16T20:03:19.856Z,15.77
2017-10-16T20:05:49.954Z,15.05
2017-10-16T20:08:19.517Z,16.65
2017-10-16T20:10:48.919Z,18.65
2017-10-16T20:13:18.389Z,16.17
2017-10-16T20:15:47.653Z,13.93
2017-10-16T20:18:17.226Z,15.10
2017-10-16T20:20:46.560Z,15.88
2017-10-16T20:23:15.994Z,14.98
2017-10-16T20:25:45.724Z,15.25
2017-10-16T20:28:16.153Z,14.02
2017-10-16T20:30:45.641Z,13.52
2017-10-16T20:33:16.081Z,13.70
2017-10-16T20:35:46.285Z,14.20
2017-10-16T20:38:16.346Z,15.50
2017-10-16T20:40:46.330Z,13.73
2017-10-16T20:43:16.147Z,15.30
2017-10-16T20:45:45.709Z,16.37
2017-10-16T20:48:15.473Z,15.68
2017-10-16T20:50:45.205Z,15.05
2017-10-16T20:53:15.218Z,15.50
2017-10-16T20:55:44.850Z,15.20
2017-10-16T20:58:14.485Z,15.70
2017-10-16T21:00:43.918Z,14.30
2017-10-16T21:03:13.493Z,13.43
2017-10-16T21:05:42.898Z,15.90
2017-10-16T21:08:12.330Z,15.30
2017-10-16T21:10:41.559Z,15.15
2017-10-16T21:13:10.852Z,14.38
2017-10-16T21:15:40.322Z,14.30
2017-10-16T21:18:09.730Z,14.55
2017-10-16T21:20:39.149Z,13.90
2017-10-16T21:23:08.653Z,14.25
2017-10-16T21:25:38.143Z,15.90
2017-10-16T21:28:07.583Z,15.27
2017-10-16T21:30:36.985Z,16.42
2017-10-16T21:33:06.461Z,16.42
2017-10-16T21:35:35.916Z,14.87
2017-10-16T21:38:05.354Z,13.62
2017-10-16T21:40:34.665Z,14.30
2017-10-16T21:43:03.908Z,14.65
2017-10-16T21:45:33.652Z,14.87
2017-10-16T21:48:02.909Z,15.40
2017-10-16T21:50:32.413Z,14.77
2017-10-16T21:53:01.713Z,17.27
2017-10-16T21:55:31.135Z,15.88
2017-10-16T21:58:00.569Z,13.90
2017-10-16T22:00:30.194Z,14.82
2017-10-16T22:02:59.812Z,14.68
2017-10-16T22:05:29.499Z,13.75
2017-10-16T22:07:58.742Z,15.68
2017-10-16T22:10:27.987Z,17.37
2017-10-16T22:12:57.418Z,17.48
2017-10-16T22:15:26.832Z,15.77
2017-10-16T22:17:56.565Z,13.55
2017-10-16T22:20:26.152Z,15.32
2017-10-16T22:22:55.554Z,16.15
2017-10-16T22:25:25.036Z,16.55
2017-10-16T22:27:54.303Z,18.10
2017-10-16T22:30:23.869Z,16.05
2017-10-16T22:32:53.339Z,17.62
2017-10-16T22:35:22.788Z,17.85
2017-10-16T22:37:52.249Z,16.83
2017-10-16T22:40:21.656Z,16.20
2017-10-16T22:42:51.120Z,15.00
2017-10-16T22:45:20.339Z,15.75
2017-10-16T22:47:49.784Z,14.50
2017-10-16T22:50:18.716Z,16.20
2017-10-16T22:52:47.747Z,16.83
2017-10-16T22:55:16.737Z,17.45
2017-10-16T22:57:46.499Z,16.15
2017-10-16T23:00:15.917Z,16.75
2017-10-16T23:02:45.498Z,17.42
2017-10-16T23:05:14.903Z,16.12
2017-10-16T23:07:44.138Z,15.85
2017-10-16T23:10:13.367Z,16.02
2017-10-16T23:12:42.777Z,15.35
2017-10-16T23:15:12.197Z,15.05
2017-10-16T23:17:41.949Z,15.05
2017-10-16T23:20:11.688Z,16.00
2017-10-16T23:22:41.109Z,15.75
2017-10-16T23:25:10.527Z,14.75
2017-10-16T23:27:40.307Z,15.45
2017-10-16T23:30:09.727Z,15.80
2017-10-16T23:32:39.131Z,16.87
2017-10-16T23:35:08.580Z,17.77
2017-10-16T23:37:37.629Z,18.30
2017-10-16T23:40:06.844Z,16.42
2017-10-16T23:42:36.072Z,16.73
2017-10-16T23:45:05.282Z,14.85
2017-10-16T23:47:34.688Z,16.60
2017-10-16T23:50:04.093Z,15.93
2017-10-16T23:52:33.333Z,16.08
2017-10-16T23:55:02.730Z,17.17
2017-10-16T23:57:34.335Z,15.25
